Geronimo, Oklahoma
Current Conditions -  °F | °C
As of 4:53 PM on Friday 28 Nov 2014 (Local Time) from KLAW Reporting Station
Clear Clear  
Wind Chill: 66°   Ceiling: Unl
Heat Index: 66°   Visibility: 10mi
Dew Point: 44°   Wind: 10mph
Humidity: 45%   Direction: 180°S
Pressure: 29.9"   Gusts: NA
Location:  34.48°N, 98.38°W
Report Text: KLAW 282253Z AUTO 18009KT 10SM CLR 19/07 A2990 RMK AO2 SLP126 T01890067
Loading
Personal Weather Stations






























Interactive Weather Map New forecast layout! Learn more

10-Day Weather Forecast

Advertisements
Track Severe Weather on mobile